Time;durP1;ratioP1;P1;durP2;ratioP2;P2;SDS_P1;SDS_P2;PMS_P1;PMS_P2;Temp;Humidity;BMP_temperature;BMP_pressure;BME280_temperature;BME280_humidity;BME280_pressure;Samples;Min_cycle;Max_cycle;Signal;HPM_P1;HPM_P2
2021/03/17 00:02:33;;;;;;;0.70;0.70;;;;;;;-1.25;84.97;92005.70;1809539;77;21928;-75
2021/03/17 00:05:22;;;;;;;0.70;0.70;;;;;;;-1.25;84.84;92007.80;1807073;79;21544;-77
2021/03/17 00:08:08;;;;;;;0.70;0.70;;;;;;;-1.26;84.62;92013.50;1825491;76;21146;-77
2021/03/17 00:10:55;;;;;;;0.60;0.60;;;;;;;-1.26;84.62;92008.17;1844893;77;21044;-74
2021/03/17 00:13:42;;;;;;;1.67;0.97;;;;;;;-1.27;83.91;92006.07;1828720;77;21301;-75
2021/03/17 00:16:28;;;;;;;0.70;0.70;;;;;;;-1.27;84.08;92009.30;1813951;79;21796;-74
2021/03/17 00:19:15;;;;;;;1.07;1.03;;;;;;;-1.29;84.29;92008.31;1813932;79;21069;-76
2021/03/17 00:21:51;;;;;;;1.93;1.77;;;;;;;-1.27;84.36;92015.97;1782982;80;21500;-77
2021/03/17 00:24:38;;;;;;;2.63;1.40;;;;;;;-1.26;84.76;92017.50;1843744;77;21142;-75
2021/03/17 00:27:24;;;;;;;1.07;0.73;;;;;;;-1.25;84.90;92014.47;1822436;77;21048;-76
2021/03/17 00:30:12;;;;;;;0.80;0.80;;;;;;;-1.25;84.79;92011.03;1816913;77;21242;-76
2021/03/17 00:33:00;;;;;;;1.87;1.27;;;;;;;-1.26;84.62;92005.50;1816807;77;21159;-75
2021/03/17 00:35:47;;;;;;;1.20;1.10;;;;;;;-1.24;84.97;92014.70;1816907;77;21048;-74
2021/03/17 00:38:33;;;;;;;1.53;0.80;;;;;;;-1.23;84.79;92015.47;1816812;79;21515;-75
2021/03/17 00:41:19;;;;;;;1.07;0.60;;;;;;;-1.27;85.11;92002.06;1816864;79;21100;-75
2021/03/17 00:44:06;;;;;;;0.93;0.70;;;;;;;-1.27;85.18;92001.30;1816743;79;21416;-77
2021/03/17 00:46:54;;;;;;;0.73;0.73;;;;;;;-1.27;85.39;91999.97;1816809;77;21667;-73
2021/03/17 00:49:24;;;;;;;0.50;0.50;;;;;;;-1.31;85.39;92010.58;1816948;77;21159;-75
2021/03/17 00:51:53;;;;;;;0.80;0.60;;;;;;;-1.31;85.43;92003.91;1816852;77;21135;-75
2021/03/17 00:54:39;;;;;;;0.97;0.63;;;;;;;-1.33;85.75;91994.14;1814441;76;21136;-77
2021/03/17 00:57:21;;;;;;;2.03;0.90;;;;;;;-1.32;85.62;91990.34;1814004;79;22190;-74
2021/03/17 00:59:50;;;;;;;0.93;0.70;;;;;;;-1.32;85.62;91998.34;1813843;79;21137;-75
2021/03/17 01:02:18;;;;;;;0.70;0.70;;;;;;;-1.34;85.34;91984.61;1814035;78;21168;-75
2021/03/17 01:04:47;;;;;;;1.47;0.87;;;;;;;-1.36;85.82;91993.52;1813880;79;21050;-74
2021/03/17 01:07:16;;;;;;;0.70;0.70;;;;;;;-1.38;85.92;91986.45;1813246;79;21153;-72
2021/03/17 01:09:44;;;;;;;1.13;0.93;;;;;;;-1.39;86.33;91980.92;1812698;79;21383;-73
2021/03/17 01:12:13;;;;;;;1.07;0.70;;;;;;;-1.37;86.62;91983.98;1812550;79;21169;-74
2021/03/17 01:14:44;;;;;;;2.20;1.60;;;;;;;-1.36;86.50;91977.52;1812581;79;21180;-75
2021/03/17 01:17:13;;;;;;;1.80;1.37;;;;;;;-1.37;86.42;91975.22;1812653;79;21610;-72
2021/03/17 01:19:41;;;;;;;0.77;0.73;;;;;;;-1.38;86.68;91970.45;1812801;79;21169;-73
2021/03/17 01:22:11;;;;;;;0.87;0.63;;;;;;;-1.39;86.27;91974.25;1848363;76;22168;-74
2021/03/17 01:24:39;;;;;;;0.50;0.50;;;;;;;-1.40;86.11;91979.35;1834778;77;21155;-72
2021/03/17 01:27:08;;;;;;;1.07;0.50;;;;;;;-1.41;86.03;91974.39;1821346;77;21497;-74
2021/03/17 01:29:36;;;;;;;0.87;0.60;;;;;;;-1.42;86.12;91974.95;1825860;76;21052;-74
2021/03/17 01:32:05;;;;;;;0.57;0.50;;;;;;;-1.42;85.83;91974.19;1845136;77;21036;-73
2021/03/17 01:34:34;;;;;;;0.40;0.33;;;;;;;-1.42;85.94;91965.63;1814089;79;21416;-74
2021/03/17 01:37:02;;;;;;;1.80;1.03;;;;;;;-1.40;85.64;91975.92;1813751;79;21105;-74
2021/03/17 01:39:30;;;;;;;0.40;0.40;;;;;;;-1.39;85.70;91968.91;1813927;78;21106;-74
2021/03/17 01:41:58;;;;;;;0.50;0.50;;;;;;;-1.36;85.74;91968.18;1813943;79;21117;-72
2021/03/17 01:44:26;;;;;;;4.03;2.10;;;;;;;-1.32;85.45;91967.67;1813939;79;21041;-73
2021/03/17 01:46:56;;;;;;;2.87;1.40;;;;;;;-1.32;84.97;91962.91;1813922;79;21065;-75
2021/03/17 01:49:24;;;;;;;1.00;0.80;;;;;;;-1.32;84.69;91961.01;1814042;79;21168;-73
2021/03/17 01:51:52;;;;;;;0.70;0.70;;;;;;;-1.29;84.43;91960.87;1813960;79;21110;-74
2021/03/17 01:54:20;;;;;;;0.93;0.87;;;;;;;-1.30;84.25;91963.34;1813940;79;21130;-75
2021/03/17 01:56:48;;;;;;;1.10;1.00;;;;;;;-1.32;84.03;91958.34;1813982;78;21145;-75
2021/03/17 01:59:16;;;;;;;0.43;0.43;;;;;;;-1.31;84.14;91961.23;1818086;76;21772;-74
2021/03/17 02:01:44;;;;;;;0.67;0.60;;;;;;;-1.32;84.14;91958.91;1849137;77;21483;-73
2021/03/17 02:04:12;;;;;;;0.90;0.90;;;;;;;-1.29;84.08;91954.97;1792270;78;21090;-75
2021/03/17 02:06:40;;;;;;;0.57;0.57;;;;;;;-1.27;84.08;91947.96;1813924;79;21101;-73
2021/03/17 02:09:10;;;;;;;1.00;0.90;;;;;;;-1.26;84.08;91956.92;1813936;79;21567;-75
2021/03/17 02:11:42;;;;;;;0.60;0.60;;;;;;;-1.28;83.90;91961.06;1813902;79;21332;-76
2021/03/17 02:14:25;;;;;;;0.80;0.43;;;;;;;-1.25;83.91;91957.12;1813948;79;21599;-75
2021/03/17 02:17:04;;;;;;;0.93;0.50;;;;;;;-1.24;83.66;91956.02;1814188;79;23721;-74
2021/03/17 02:20:05;;;;;;;0.97;0.60;;;;;;;-1.23;83.23;91950.13;1848903;77;21051;-74
2021/03/17 02:22:47;;;;;;;0.50;0.50;;;;;;;-1.25;83.22;91953.13;1834581;77;21025;-75
2021/03/17 02:25:29;;;;;;;0.73;0.73;;;;;;;-1.27;83.23;91954.06;1833821;78;21604;-75
2021/03/17 02:28:22;;;;;;;0.80;0.80;;;;;;;-1.29;83.05;91954.97;1827860;77;21069;-74
2021/03/17 02:31:14;;;;;;;1.10;0.50;;;;;;;-1.31;82.96;91946.57;1834561;77;21533;-74
2021/03/17 02:33:58;;;;;;;1.93;1.03;;;;;;;-1.32;83.37;91952.24;1830504;78;21547;-74
2021/03/17 02:36:46;;;;;;;0.93;0.77;;;;;;;-1.36;83.64;91952.19;1830850;77;21088;-75
2021/03/17 02:39:19;;;;;;;1.70;0.83;;;;;;;-1.39;83.71;91955.59;1830902;78;21603;-75
2021/03/17 02:42:11;;;;;;;0.80;0.80;;;;;;;-1.37;83.84;91953.31;1830379;78;21075;-73
2021/03/17 02:45:10;;;;;;;0.50;0.50;;;;;;;-1.38;83.59;91968.34;1822015;77;21068;-74
2021/03/17 02:47:59;;;;;;;0.50;0.50;;;;;;;-1.42;83.19;91958.95;1838041;77;21215;-75
2021/03/17 02:50:27;;;;;;;1.00;0.80;;;;;;;-1.47;83.50;91957.90;1845354;77;21039;-77
2021/03/17 02:52:55;;;;;;;0.60;0.60;;;;;;;-1.48;83.69;91957.70;1845479;77;21341;-75
2021/03/17 02:55:28;;;;;;;1.10;0.90;;;;;;;-1.47;83.85;91952.56;1838678;77;21507;-76
2021/03/17 02:57:56;;;;;;;0.50;0.40;;;;;;;-1.49;83.84;91952.16;1758914;78;21053;-77
2021/03/17 03:00:24;;;;;;;0.50;0.50;;;;;;;-1.51;83.68;91950.41;1837679;76;21479;-75
2021/03/17 03:02:52;;;;;;;0.50;0.40;;;;;;;-1.51;83.67;91934.41;1844531;77;21045;-74
2021/03/17 03:05:21;;;;;;;1.03;0.60;;;;;;;-1.54;83.71;91951.14;1827951;78;22643;-74
2021/03/17 03:07:50;;;;;;;0.70;0.50;;;;;;;-1.54;83.56;91943.91;1805024;78;21112;-77
2021/03/17 03:10:19;;;;;;;1.10;0.40;;;;;;;-1.57;83.73;91943.84;1796065;78;21756;-75
2021/03/17 03:12:48;;;;;;;0.80;0.63;;;;;;;-1.59;83.60;91947.41;1816611;77;21183;-74
2021/03/17 03:15:18;;;;;;;0.50;0.50;;;;;;;-1.58;83.10;91939.08;1790862;78;21112;-74
2021/03/17 03:17:46;;;;;;;1.07;0.50;;;;;;;-1.58;84.14;91947.08;1827445;77;21646;-74
2021/03/17 03:20:19;;;;;;;1.17;0.57;;;;;;;-1.61;84.31;91948.34;1841128;77;21171;-75
2021/03/17 03:22:48;;;;;;;0.37;0.37;;;;;;;-1.62;84.18;91951.55;1840652;77;21685;-76
2021/03/17 03:25:16;;;;;;;0.63;0.40;;;;;;;-1.62;84.67;91941.45;1840540;77;21198;-75
2021/03/17 03:27:44;;;;;;;0.60;0.40;;;;;;;-1.61;84.10;91940.34;1834780;77;21168;-75
2021/03/17 03:30:16;;;;;;;0.53;0.47;;;;;;;-1.62;84.12;91948.88;1829473;78;21338;-75
2021/03/17 03:32:44;;;;;;;0.50;0.50;;;;;;;-1.64;84.10;91951.72;1829713;77;21151;-76
2021/03/17 03:35:13;;;;;;;0.77;0.67;;;;;;;-1.66;83.10;91939.30;1829608;78;21159;-76
2021/03/17 03:37:41;;;;;;;0.40;0.40;;;;;;;-1.68;83.43;91942.89;1830136;78;21175;-75
2021/03/17 03:40:17;;;;;;;0.20;0.20;;;;;;;-1.71;83.60;91941.69;1830857;78;21100;-74
2021/03/17 03:42:46;;;;;;;0.40;0.40;;;;;;;-1.72;83.60;91938.27;1822471;78;21760;-77
2021/03/17 03:45:16;;;;;;;0.50;0.40;;;;;;;-1.74;83.82;91941.06;1813745;79;21130;-76
2021/03/17 03:47:44;;;;;;;0.30;0.30;;;;;;;-1.74;84.18;91946.39;1815832;77;21074;-74
2021/03/17 03:50:15;;;;;;;0.67;0.50;;;;;;;-1.73;83.58;91939.93;1848920;77;21028;-75
2021/03/17 03:53:14;;;;;;;0.50;0.50;;;;;;;-1.74;83.90;91945.83;1833263;77;21037;-74
2021/03/17 03:55:59;;;;;;;0.73;0.60;;;;;;;-1.74;84.27;91953.05;1816406;77;22462;-74
2021/03/17 03:58:51;;;;;;;0.40;0.40;;;;;;;-1.79;84.17;91927.47;1813797;77;21085;-74
2021/03/17 04:01:25;;;;;;;0.57;0.53;;;;;;;-1.80;84.22;91941.16;1837532;77;21120;-74
2021/03/17 04:03:58;;;;;;;0.10;0.10;;;;;;;-1.80;84.31;91941.16;1839790;77;21096;-73
2021/03/17 04:06:26;;;;;;;1.03;0.50;;;;;;;-1.81;84.86;91939.59;1825870;77;21050;-76
2021/03/17 04:08:55;;;;;;;0.40;0.20;;;;;;;-1.84;84.66;91938.97;1816349;76;21192;-74
2021/03/17 04:11:23;;;;;;;0.40;0.30;;;;;;;-1.87;84.83;91944.46;1848966;77;21086;-76
2021/03/17 04:13:51;;;;;;;0.30;0.30;;;;;;;-1.89;84.92;91948.59;1833280;77;21578;-75
2021/03/17 04:16:20;;;;;;;0.80;0.50;;;;;;;-1.91;84.77;91936.97;1830937;77;21116;-75
2021/03/17 04:18:48;;;;;;;0.57;0.30;;;;;;;-1.91;84.69;91954.85;1830873;78;21136;-74
2021/03/17 04:21:20;;;;;;;0.30;0.30;;;;;;;-1.93;84.57;91956.52;1830733;77;21123;-74
2021/03/17 04:23:50;;;;;;;0.40;0.30;;;;;;;-1.94;84.43;91952.33;1830933;78;21156;-75
2021/03/17 04:26:18;;;;;;;0.60;0.50;;;;;;;-1.92;84.56;91956.72;1848934;77;21055;-75
2021/03/17 04:28:46;;;;;;;0.37;0.33;;;;;;;-1.90;84.62;91957.72;1834224;77;21108;-73
2021/03/17 04:31:15;;;;;;;0.43;0.30;;;;;;;-1.90;84.69;91951.83;1817006;77;21044;-76
2021/03/17 04:33:44;;;;;;;0.40;0.40;;;;;;;-1.90;84.48;91954.48;1842328;77;21213;-74
2021/03/17 04:36:12;;;;;;;0.30;0.30;;;;;;;-1.89;84.21;91960.02;1828731;78;21162;-73
2021/03/17 04:38:41;;;;;;;0.37;0.33;;;;;;;-1.88;84.23;91964.25;1814048;79;21094;-74
2021/03/17 04:41:11;;;;;;;0.50;0.47;;;;;;;-1.87;84.35;91951.69;1846598;77;21123;-73
2021/03/17 04:43:39;;;;;;;0.40;0.40;;;;;;;-1.86;84.25;91963.31;1812432;78;21551;-75
2021/03/17 04:46:07;;;;;;;0.50;0.50;;;;;;;-1.87;83.75;91953.78;1831096;77;22214;-75
2021/03/17 04:48:42;;;;;;;0.40;0.40;;;;;;;-1.90;84.11;91954.48;1826324;78;21122;-76
2021/03/17 04:51:10;;;;;;;0.20;0.20;;;;;;;-1.90;84.01;91966.48;1813927;79;21538;-74
2021/03/17 04:53:39;;;;;;;0.30;0.30;;;;;;;-1.88;84.39;91967.45;1813997;79;21164;-74
2021/03/17 04:56:08;;;;;;;0.77;0.63;;;;;;;-1.87;84.45;91972.44;1793720;77;21052;-76
2021/03/17 04:58:37;;;;;;;0.33;0.20;;;;;;;-1.87;84.54;91965.78;1837216;77;22610;-75
2021/03/17 05:01:06;;;;;;;0.57;0.43;;;;;;;-1.86;84.47;91975.30;1830955;78;21507;-75
2021/03/17 05:03:36;;;;;;;0.33;0.33;;;;;;;-1.84;84.63;91975.73;1827122;78;21066;-74
2021/03/17 05:06:05;;;;;;;1.07;1.03;;;;;;;-1.87;84.27;91964.45;1813862;79;21124;-74
2021/03/17 05:08:33;;;;;;;0.20;0.20;;;;;;;-1.84;84.25;91973.07;1814098;79;21042;-77
2021/03/17 05:11:01;;;;;;;0.30;0.30;;;;;;;-1.86;83.66;91971.88;1842278;77;22649;-75
2021/03/17 05:13:29;;;;;;;0.50;0.50;;;;;;;-1.87;84.30;91978.33;1838462;77;21120;-75
2021/03/17 05:15:58;;;;;;;0.30;0.30;;;;;;;-1.86;84.68;91973.20;1831036;77;21128;-73
2021/03/17 05:18:27;;;;;;;0.73;0.40;;;;;;;-1.83;84.60;91986.59;1831016;78;21741;-74
2021/03/17 05:20:55;;;;;;;0.30;0.30;;;;;;;-1.81;84.33;91990.23;1831204;77;21036;-74
2021/03/17 05:23:23;;;;;;;0.60;0.60;;;;;;;-1.81;84.68;91985.67;1831030;78;22470;-72
2021/03/17 05:25:52;;;;;;;2.13;0.70;;;;;;;-1.83;84.42;91985.27;1831000;78;21150;-73
2021/03/17 05:28:20;;;;;;;2.47;0.70;;;;;;;-1.85;84.56;91990.16;1816205;77;21115;-74
2021/03/17 05:30:50;;;;;;;0.53;0.53;;;;;;;-1.87;84.82;91994.32;1849169;77;21147;-73
2021/03/17 05:33:25;;;;;;;0.77;0.70;;;;;;;-1.86;85.35;91999.28;1848166;77;21120;-72
2021/03/17 05:35:54;;;;;;;0.50;0.45;;;;;;;-1.82;85.70;91988.70;1831352;78;22089;-72
2021/03/17 05:38:23;;;;;;;0.40;0.30;;;;;;;-1.78;84.20;91991.63;1830938;78;21076;-72
2021/03/17 05:40:51;;;;;;;0.63;0.60;;;;;;;-1.79;84.45;91999.42;1819646;77;21513;-75
2021/03/17 05:43:19;;;;;;;0.40;0.40;;;;;;;-1.82;84.63;92000.13;1829129;77;21104;-74
2021/03/17 05:45:48;;;;;;;0.43;0.43;;;;;;;-1.81;84.99;91998.23;1785096;78;21128;-74
2021/03/17 05:48:17;;;;;;;0.40;0.40;;;;;;;-1.78;85.38;91998.86;1828413;78;21350;-74
2021/03/17 05:50:45;;;;;;;0.80;0.60;;;;;;;-1.73;85.53;92006.55;1848918;77;21123;-73
2021/03/17 05:53:14;;;;;;;0.63;0.50;;;;;;;-1.67;85.35;92005.72;1823517;77;21044;-75
2021/03/17 05:55:41;;;;;;;1.37;0.90;;;;;;;-1.64;84.88;92004.45;1803790;78;21133;-73
2021/03/17 05:58:11;;;;;;;1.13;0.93;;;;;;;-1.59;85.29;92004.16;1813919;79;21568;-73
2021/03/17 06:00:39;;;;;;;0.93;0.30;;;;;;;-1.54;85.27;92001.22;1818405;75;22245;-74
2021/03/17 06:03:07;;;;;;;0.30;0.20;;;;;;;-1.52;84.47;92004.86;1849014;76;21063;-73
2021/03/17 06:05:36;;;;;;;0.53;0.40;;;;;;;-1.51;84.69;92009.83;1832158;77;21049;-73
2021/03/17 06:08:07;;;;;;;0.73;0.30;;;;;;;-1.51;83.88;92008.48;1830949;77;21049;-74
2021/03/17 06:10:35;;;;;;;0.93;0.30;;;;;;;-1.50;83.74;92015.95;1831008;78;21047;-73
2021/03/17 06:13:12;;;;;;;1.03;0.53;;;;;;;-1.48;83.64;92017.12;1830930;77;21189;-74
2021/03/17 06:15:52;;;;;;;0.57;0.20;;;;;;;-1.45;83.72;92016.98;1829162;78;21122;-74
2021/03/17 06:18:27;;;;;;;0.50;0.47;;;;;;;-1.39;83.94;92024.12;1809253;79;21113;-72
2021/03/17 06:20:56;;;;;;;0.87;0.80;;;;;;;-1.34;84.38;92022.52;1849069;77;21048;-72
2021/03/17 06:23:24;;;;;;;0.40;0.40;;;;;;;-1.35;84.11;92023.08;1834637;77;21465;-72
2021/03/17 06:25:52;;;;;;;1.00;0.73;;;;;;;-1.35;82.22;92024.41;1830961;78;21570;-73
2021/03/17 06:28:20;;;;;;;0.47;0.20;;;;;;;-1.36;83.12;92024.19;1830940;78;21132;-73
2021/03/17 06:30:49;;;;;;;1.60;0.40;;;;;;;-1.35;82.62;92021.74;1828789;78;21148;-73
2021/03/17 06:33:19;;;;;;;1.90;1.37;;;;;;;-1.32;82.13;92027.67;1789705;79;21233;-72
2021/03/17 06:35:47;;;;;;;0.67;0.27;;;;;;;-1.32;82.33;92032.25;1846484;77;21067;-74
2021/03/17 06:38:23;;;;;;;0.47;0.47;;;;;;;-1.29;82.34;92025.64;1824219;77;21154;-72
2021/03/17 06:40:58;;;;;;;0.60;0.43;;;;;;;-1.28;82.11;92027.74;1813902;79;21105;-73
2021/03/17 06:43:44;;;;;;;0.78;0.70;;;;;;;-1.25;82.37;92027.80;1814044;79;21026;-73
2021/03/17 06:46:17;;;;;;;0.87;0.87;;;;;;;-1.22;82.64;92042.34;1794015;79;21050;-74
2021/03/17 06:48:47;;;;;;;;;;;;;;;-1.25;88.14;92031.04;1815699;76;21654;-72
2021/03/17 06:51:18;;;;;;;0.97;0.60;;;;;;;-1.26;86.92;92030.27;1811718;79;21182;-72
2021/03/17 06:54:01;;;;;;;0.77;0.60;;;;;;;-1.26;84.32;92031.61;1750883;79;21088;-73
2021/03/17 06:56:36;;;;;;;0.70;0.60;;;;;;;-1.20;83.06;92032.64;1773266;79;21535;-74
2021/03/17 06:59:08;;;;;;;0.70;0.70;;;;;;;-1.17;82.57;92041.27;1817876;76;21045;-74
2021/03/17 07:01:41;;;;;;;0.43;0.33;;;;;;;-1.15;82.29;92039.03;1840221;77;21161;-73
2021/03/17 07:04:21;;;;;;;3.10;2.20;;;;;;;-1.15;82.38;92033.70;1804782;79;21367;-74
2021/03/17 07:06:52;;;;;;;1.47;1.00;;;;;;;-1.11;82.67;92039.86;1779381;78;21133;-74
2021/03/17 07:09:26;;;;;;;0.80;0.80;;;;;;;-1.05;82.23;92051.22;1804207;78;21100;-73
2021/03/17 07:12:10;;;;;;;1.97;1.10;;;;;;;-0.97;82.14;92036.67;1812320;78;21165;-73
2021/03/17 07:14:44;;;;;;;1.03;0.70;;;;;;;-0.92;81.68;92039.03;1847111;77;21162;-74
2021/03/17 07:17:32;;;;;;;0.72;0.65;;;;;;;-0.92;81.52;92039.03;1829885;77;21247;-73
2021/03/17 07:20:05;;;;;;;1.30;0.90;;;;;;;-0.91;81.37;92049.34;1834056;77;21127;-73
2021/03/17 07:22:30;;;;;;;1.07;0.97;;;;;;;-0.93;81.66;92046.27;1857520;77;21182;-73
2021/03/17 07:25:05;;;;;;;3.77;2.60;;;;;;;-0.90;81.29;92041.56;1857311;76;21146;-74
2021/03/17 07:27:36;;;;;;;2.53;1.80;;;;;;;-0.87;81.19;92046.73;1832068;77;21083;-74
2021/03/17 07:30:08;;;;;;;11.60;4.33;;;;;;;-0.82;81.34;92046.45;1814382;77;21508;-73
2021/03/17 07:33:03;;;;;;;4.55;1.95;;;;;;;-0.81;81.38;92056.75;1785685;79;21232;-72
2021/03/17 07:35:36;;;;;;;2.60;1.53;;;;;;;-0.79;80.65;92048.38;1811425;77;21128;-72
2021/03/17 07:38:12;;;;;;;3.45;1.80;;;;;;;-0.80;80.76;92045.52;1819779;78;21082;-74
2021/03/17 07:40:45;;;;;;;3.90;1.67;;;;;;;-0.80;81.16;92048.18;1800872;79;21117;-72
2021/03/17 07:43:15;;;;;;;1.37;1.20;;;;;;;-0.73;81.31;92042.95;1776825;79;22218;-72
2021/03/17 07:45:43;;;;;;;2.13;1.40;;;;;;;-0.64;81.19;92043.50;1777652;80;21082;-72
2021/03/17 07:48:12;;;;;;;3.13;1.83;;;;;;;-0.56;81.32;92045.14;1824468;78;21512;-72
2021/03/17 07:50:42;;;;;;;2.53;0.97;;;;;;;-0.46;80.74;92039.73;1816080;78;21536;-72
2021/03/17 07:53:23;;;;;;;1.57;1.33;;;;;;;-0.42;80.20;92037.88;1833567;77;21578;-72
2021/03/17 07:55:56;;;;;;;2.47;1.50;;;;;;;-0.34;80.27;92050.78;1836120;77;21066;-72
2021/03/17 07:58:24;;;;;;;1.73;0.90;;;;;;;-0.25;80.20;92047.30;1818686;75;21219;-72
2021/03/17 08:00:53;;;;;;;0.80;0.70;;;;;;;-0.21;80.15;92045.44;1857863;77;21503;-71
2021/03/17 08:03:21;;;;;;;0.63;0.60;;;;;;;-0.19;79.71;92048.51;1813097;77;21544;-72
2021/03/17 08:05:50;;;;;;;0.88;0.80;;;;;;;-0.19;78.72;92053.09;1786433;79;21141;-74
2021/03/17 08:08:18;;;;;;;3.30;2.02;;;;;;;-0.25;77.95;92045.39;1777496;79;21645;-72
2021/03/17 08:10:47;;;;;;;1.65;0.98;;;;;;;-0.30;78.90;92046.25;1777557;79;21090;-72
2021/03/17 08:13:16;;;;;;;2.75;1.90;;;;;;;-0.28;79.12;92050.11;1781027;77;21505;-72
2021/03/17 08:15:45;;;;;;;0.72;0.72;;;;;;;-0.21;79.53;92056.12;1828279;77;21049;-72
2021/03/17 08:18:37;;;;;;;0.65;0.60;;;;;;;-0.19;78.01;92052.52;1823556;77;21029;-72
2021/03/17 08:21:06;;;;;;;0.42;0.25;;;;;;;-0.23;77.86;92049.03;1811358;77;21348;-72
2021/03/17 08:23:48;;;;;;;0.50;0.50;;;;;;;-0.21;78.50;92048.11;1792365;79;21074;-72
2021/03/17 08:26:27;;;;;;;0.82;0.60;;;;;;;-0.19;77.97;92037.05;1817845;77;21060;-72
2021/03/17 08:28:56;;;;;;;0.68;0.50;;;;;;;-0.22;78.00;92045.25;1852250;77;21486;-72
2021/03/17 08:31:42;;;;;;;0.70;0.70;;;;;;;-0.24;78.31;92046.16;1852673;77;21023;-74
2021/03/17 08:34:13;;;;;;;0.57;0.55;;;;;;;-0.21;78.54;92048.11;1858088;77;21785;-72
2021/03/17 08:36:41;;;;;;;1.12;0.90;;;;;;;-0.18;78.05;92047.97;1844588;77;21061;-73
2021/03/17 08:39:10;;;;;;;0.70;0.70;;;;;;;-0.11;78.52;92044.06;1834494;77;21575;-73
2021/03/17 08:41:47;;;;;;;1.15;0.80;;;;;;;-0.04;78.74;92048.14;1821079;78;21172;-73
2021/03/17 08:44:18;;;;;;;0.72;0.72;;;;;;;0.05;78.10;92047.89;1828456;76;21474;-73
2021/03/17 08:46:46;;;;;;;1.20;0.70;;;;;;;0.11;77.33;92045.09;1841878;77;21354;-72
2021/03/17 08:51:51;;;;;;;0.70;0.70;;;;;;;0.07;76.29;92046.95;1831025;78;21041;-72
2021/03/17 08:54:47;;;;;;;1.23;1.13;;;;;;;0.03;76.11;92046.90;1830246;77;21151;-72
2021/03/17 08:57:16;;;;;;;1.27;0.98;;;;;;;-0.06;76.94;92044.50;1830733;77;21044;-72
2021/03/17 08:59:56;;;;;;;2.27;1.52;;;;;;;-0.04;77.58;92042.80;1831136;78;21781;-72
2021/03/17 09:02:33;;;;;;;0.85;0.82;;;;;;;-0.01;77.36;92048.76;1830905;78;21061;-72
2021/03/17 09:05:20;;;;;;;2.02;0.88;;;;;;;0.01;76.73;92048.41;1830945;78;21140;-72
2021/03/17 09:08:08;;;;;;;0.80;0.60;;;;;;;0.03;76.09;92048.80;1830786;78;21116;-72
2021/03/17 09:10:48;;;;;;;0.80;0.80;;;;;;;-0.03;76.40;92054.47;1831012;78;21064;-73
2021/03/17 09:13:22;;;;;;;0.90;0.90;;;;;;;-0.03;76.26;92050.47;1831182;78;22514;-71
2021/03/17 09:15:51;;;;;;;1.23;0.67;;;;;;;-0.06;76.96;92048.52;1830804;78;21211;-72
2021/03/17 09:18:20;;;;;;;2.00;1.30;;;;;;;-0.05;76.52;92051.95;1830889;77;21123;-71
2021/03/17 09:20:50;;;;;;;0.82;0.78;;;;;;;-0.04;76.66;92054.82;1821448;77;21594;-71
2021/03/17 09:23:22;;;;;;;0.75;0.70;;;;;;;-0.01;76.16;92050.09;1813887;79;21156;-71
2021/03/17 09:25:52;;;;;;;1.30;1.20;;;;;;;0.02;76.09;92056.05;1818495;76;21275;-73
2021/03/17 09:28:24;;;;;;;0.98;0.65;;;;;;;0.04;76.47;92061.83;1849003;77;21111;-73
2021/03/17 09:31:03;;;;;;;1.72;1.17;;;;;;;-0.03;75.86;92057.14;1831380;76;21195;-72
2021/03/17 09:33:37;;;;;;;1.30;0.90;;;;;;;-0.03;76.87;92055.05;1817009;77;21576;-72
2021/03/17 09:36:15;;;;;;;0.88;0.78;;;;;;;0.01;76.79;92055.09;1813862;79;21077;-71
2021/03/17 09:38:48;;;;;;;0.80;0.80;;;;;;;0.04;76.65;92060.48;1830418;77;21356;-72
2021/03/17 09:41:20;;;;;;;1.12;0.88;;;;;;;0.08;75.84;92057.30;1843707;77;21045;-72
2021/03/17 09:43:52;;;;;;;0.90;0.80;;;;;;;0.09;76.26;92051.37;1830113;77;21111;-73
2021/03/17 09:46:31;;;;;;;1.25;0.98;;;;;;;0.09;75.73;92059.39;1813510;79;21579;-72
2021/03/17 09:49:18;;;;;;;1.07;1.00;;;;;;;0.05;75.71;92055.34;1848218;76;21586;-74
2021/03/17 09:51:54;;;;;;;1.42;1.10;;;;;;;0.05;77.05;92066.03;1832453;77;21179;-72
2021/03/17 09:54:24;;;;;;;1.30;1.20;;;;;;;0.09;76.82;92061.50;1830456;78;21136;-72
2021/03/17 09:57:01;;;;;;;0.98;0.88;;;;;;;0.10;76.25;92060.36;1822388;77;21185;-72
2021/03/17 09:59:33;;;;;;;1.07;1.00;;;;;;;0.12;76.59;92067.46;1813865;79;21130;-72
2021/03/17 10:02:24;;;;;;;1.20;0.90;;;;;;;0.22;76.49;92067.37;1813831;79;21152;-71
2021/03/17 10:04:56;;;;;;;0.70;0.70;;;;;;;0.26;76.10;92058.06;1815998;77;21595;-73
2021/03/17 10:07:30;;;;;;;1.30;1.20;;;;;;;0.34;76.57;92066.37;1848868;77;21228;-72
2021/03/17 10:09:59;;;;;;;;;;;;;;;0.34;76.44;92069.84;1834906;77;21112;-72
2021/03/17 10:12:31;;;;;;;0.95;0.72;;;;;;;0.35;75.92;92071.38;1830942;77;20471;-72
2021/03/17 10:15:10;;;;;;;0.90;0.83;;;;;;;0.39;76.33;92071.42;1822404;78;21602;-72
2021/03/17 10:17:38;;;;;;;1.83;1.00;;;;;;;0.45;75.43;92077.97;1825877;75;21338;-72
2021/03/17 10:20:20;;;;;;;1.20;1.10;;;;;;;0.46;74.86;92076.86;1846218;77;21227;-72
2021/03/17 10:22:49;;;;;;;1.20;1.00;;;;;;;0.48;74.97;92077.25;1830391;78;21158;-73
2021/03/17 10:25:20;;;;;;;1.00;0.90;;;;;;;0.50;74.98;92080.91;1768121;80;21177;-72
2021/03/17 10:27:55;;;;;;;0.88;0.88;;;;;;;0.51;75.83;92081.87;1760410;81;21181;-72
2021/03/17 10:30:30;;;;;;;0.95;0.88;;;;;;;0.55;75.56;92078.67;1757980;79;21774;-73
2021/03/17 10:33:01;;;;;;;2.47;1.80;;;;;;;0.52;75.15;92086.08;1788968;79;21576;-72
2021/03/17 10:35:30;;;;;;;1.20;1.10;;;;;;;0.51;75.34;92088.56;1779546;80;21129;-72
2021/03/17 10:38:00;;;;;;;0.87;0.87;;;;;;;0.52;75.04;92087.42;1779661;80;21141;-72
2021/03/17 10:40:29;;;;;;;2.30;1.30;;;;;;;0.48;74.46;92087.38;1780076;80;21145;-72
2021/03/17 10:43:01;;;;;;;1.90;1.17;;;;;;;0.46;75.59;92084.88;1780074;78;21373;-72
2021/03/17 10:45:35;;;;;;;1.85;1.40;;;;;;;0.45;75.54;92090.00;1779030;80;21201;-73
2021/03/17 10:48:15;;;;;;;1.30;1.20;;;;;;;0.42;75.09;92086.74;1779724;78;21054;-72
2021/03/17 10:50:43;;;;;;;2.02;1.75;;;;;;;0.37;75.01;92087.81;1780142;78;21757;-72
2021/03/17 10:53:22;;;;;;;2.35;1.55;;;;;;;0.34;75.68;92085.89;1780170;79;21106;-73
2021/03/17 10:55:53;;;;;;;1.65;1.30;;;;;;;0.32;75.79;92082.80;1780232;80;21432;-72
2021/03/17 10:58:23;;;;;;;0.88;0.85;;;;;;;0.34;76.12;92075.73;1780104;78;21212;-71
2021/03/17 11:00:54;;;;;;;1.07;0.98;;;;;;;0.36;75.53;92084.17;1780048;80;21169;-72
2021/03/17 11:03:39;;;;;;;1.37;1.27;;;;;;;0.34;76.11;92076.53;1779975;80;21165;-72
2021/03/17 11:06:15;;;;;;;1.27;1.17;;;;;;;0.33;75.84;92081.66;1780232;80;21157;-72
2021/03/17 11:08:45;;;;;;;2.17;1.47;;;;;;;0.35;75.56;92087.42;1780253;80;21422;-72
2021/03/17 11:11:14;;;;;;;1.62;1.50;;;;;;;0.33;75.70;92079.55;1779720;80;37471;-72
2021/03/17 11:13:49;;;;;;;3.65;1.62;;;;;;;0.30;76.29;92086.41;1779919;80;21152;-72
2021/03/17 11:16:39;;;;;;;1.80;1.32;;;;;;;0.27;76.16;92085.03;1780033;80;21062;-72
2021/03/17 11:19:10;;;;;;;2.00;1.77;;;;;;;0.23;75.99;92083.64;1779635;79;21198;-72
2021/03/17 11:21:40;;;;;;;1.20;1.00;;;;;;;0.22;76.66;92077.50;1780099;79;21325;-72
2021/03/17 11:24:20;;;;;;;2.25;1.00;;;;;;;0.14;76.08;92087.91;1780019;80;21161;-72
2021/03/17 11:26:49;;;;;;;1.72;1.37;;;;;;;0.12;76.02;92083.50;1780034;80;21168;-72
2021/03/17 11:29:21;;;;;;;3.30;1.42;;;;;;;0.09;75.96;92086.89;1779955;79;21057;-72
2021/03/17 11:31:51;;;;;;;1.97;1.60;;;;;;;0.05;75.71;92077.29;1779762;79;21640;-72
2021/03/17 11:34:20;;;;;;;1.72;1.10;;;;;;;-0.05;76.54;92084.02;1780102;80;21363;-72
2021/03/17 11:36:50;;;;;;;1.50;1.40;;;;;;;-0.06;76.65;92081.15;1780037;80;21175;-72
2021/03/17 11:39:20;;;;;;;1.15;1.00;;;;;;;-0.05;77.07;92086.69;1779722;80;21118;-71
2021/03/17 11:41:49;;;;;;;1.52;1.25;;;;;;;-0.06;76.56;92082.48;1780051;79;21525;-72
2021/03/17 11:44:20;;;;;;;2.37;1.87;;;;;;;-0.01;76.67;92087.50;1780058;80;21225;-72
2021/03/17 11:46:49;;;;;;;1.55;1.30;;;;;;;0.02;76.86;92086.02;1763753;81;21198;-72
2021/03/17 11:49:19;;;;;;;1.95;1.35;;;;;;;0.03;76.47;92084.31;1763625;81;21114;-72
2021/03/17 11:51:48;;;;;;;2.17;1.42;;;;;;;-0.02;76.25;92080.63;1763630;81;21154;-72
2021/03/17 11:54:16;;;;;;;2.17;1.55;;;;;;;-0.02;77.06;92085.97;1773103;80;21130;-72
2021/03/17 11:56:44;;;;;;;1.37;1.20;;;;;;;-0.01;77.43;92088.27;1792672;79;21590;-72
2021/03/17 11:59:12;;;;;;;3.08;1.25;;;;;;;-0.02;76.89;92087.31;1816754;78;21742;-72
2021/03/17 12:01:40;;;;;;;1.82;1.40;;;;;;;-0.04;77.45;92093.56;1782926;77;21618;-72
2021/03/17 12:04:09;;;;;;;1.80;1.50;;;;;;;-0.07;77.45;92096.41;1768682;80;21159;-72
2021/03/17 12:06:38;;;;;;;2.72;2.30;;;;;;;-0.07;77.26;92086.30;1763813;80;21174;-72
2021/03/17 12:09:07;;;;;;;1.55;1.45;;;;;;;-0.07;77.86;92090.30;1768454;80;21497;-72